createdAt,value
2022-08-20T05:48:35.733Z,4.25
2022-08-20T05:52:38.585Z,4.63
2022-08-20T05:56:41.642Z,4.13
2022-08-20T06:00:44.221Z,4.88
2022-08-20T06:04:48.099Z,2.90
2022-08-20T06:08:58.879Z,6.53
2022-08-20T06:13:02.887Z,6.07
2022-08-20T06:17:07.861Z,18.48
2022-08-20T06:21:11.764Z,8.82
2022-08-20T06:25:14.331Z,13.20
2022-08-20T06:29:16.985Z,12.70
2022-08-20T06:33:19.568Z,12.95
2022-08-20T06:37:30.851Z,10.95
2022-08-20T06:41:37.161Z,5.38
2022-08-20T06:45:40.659Z,4.43
2022-08-20T06:49:43.248Z,4.78
2022-08-20T06:53:47.344Z,6.47
2022-08-20T06:57:59.309Z,6.60
2022-08-20T07:02:01.959Z,5.57
2022-08-20T07:06:05.094Z,5.53
2022-08-20T07:10:12.196Z,4.43
2022-08-20T07:14:14.963Z,6.07
2022-08-20T07:18:17.893Z,3.70
2022-08-20T07:22:31.114Z,3.88
2022-08-20T07:26:35.353Z,4.25
2022-08-20T07:30:57.824Z,5.35
2022-08-20T07:35:00.552Z,5.60
2022-08-20T07:39:05.730Z,2.97
2022-08-20T07:43:10.683Z,5.95
2022-08-20T07:47:14.107Z,5.28
2022-08-20T07:51:19.126Z,6.65
2022-08-20T07:55:22.828Z,5.90
2022-08-20T07:59:26.756Z,7.35
2022-08-20T08:03:39.907Z,9.07
2022-08-20T08:07:52.088Z,10.32
2022-08-20T08:11:57.515Z,10.40
2022-08-20T08:16:02.119Z,10.35
2022-08-20T08:20:06.930Z,11.13
2022-08-20T08:24:12.127Z,12.70
2022-08-20T08:28:16.107Z,10.38
2022-08-20T08:32:20.079Z,11.13
2022-08-20T08:36:22.610Z,10.02
2022-08-20T08:40:25.188Z,11.05
2022-08-20T08:44:31.119Z,12.88
2022-08-20T08:48:38.312Z,10.55
2022-08-20T08:52:42.080Z,13.48
2022-08-20T08:56:49.703Z,11.98
2022-08-20T09:00:56.487Z,12.95
2022-08-20T09:05:05.101Z,10.68
2022-08-20T09:09:12.196Z,10.05
2022-08-20T09:13:14.759Z,11.20
2022-08-20T09:17:19.097Z,11.48
2022-08-20T09:21:22.974Z,15.52
2022-08-20T09:25:26.040Z,14.48
2022-08-20T09:29:29.356Z,12.60
2022-08-20T09:33:32.102Z,15.70
2022-08-20T09:41:41.331Z,13.25
2022-08-20T09:45:43.944Z,13.68
2022-08-20T09:49:47.260Z,12.50
2022-08-20T09:53:51.561Z,13.10
2022-08-20T09:57:54.716Z,12.20
2022-08-20T10:01:58.221Z,12.68
2022-08-20T10:06:00.865Z,13.40
2022-08-20T10:10:06.431Z,21.10
2022-08-20T10:14:09.075Z,17.45
2022-08-20T10:18:12.280Z,15.88
2022-08-20T10:22:15.131Z,16.02
2022-08-20T10:26:19.243Z,18.20
2022-08-20T10:30:22.728Z,16.17
2022-08-20T10:34:26.382Z,14.75
2022-08-20T10:38:29.083Z,14.88
2022-08-20T10:42:33.009Z,14.48
2022-08-20T10:46:35.776Z,12.60
2022-08-20T10:50:38.366Z,11.35
2022-08-20T10:58:46.173Z,14.88
2022-08-20T11:02:48.813Z,12.48
2022-08-20T11:10:54.043Z,13.38
2022-08-20T11:19:00.512Z,15.27
2022-08-20T11:27:07.570Z,17.45
2022-08-20T11:31:11.572Z,22.27
2022-08-20T11:35:40.984Z,21.70
2022-08-20T11:39:41.617Z,21.52
2022-08-20T11:43:59.494Z,21.33
2022-08-20T11:48:08.378Z,20.05
2022-08-20T11:52:10.937Z,18.65
2022-08-20T11:56:18.061Z,19.30
2022-08-20T12:00:32.039Z,20.27
2022-08-20T12:04:37.279Z,18.00
2022-08-20T12:08:40.012Z,19.80
2022-08-20T12:12:42.587Z,13.85
2022-08-20T12:16:45.162Z,11.32
2022-08-20T12:20:50.851Z,12.63
2022-08-20T12:24:54.234Z,10.55
2022-08-20T12:28:56.786Z,14.10
2022-08-20T12:32:59.696Z,13.82
2022-08-20T12:37:05.645Z,11.77
2022-08-20T12:41:08.267Z,13.27
2022-08-20T12:45:11.762Z,12.43
2022-08-20T12:49:14.332Z,14.05
2022-08-20T12:53:18.614Z,15.55
2022-08-20T12:57:26.261Z,15.98
2022-08-20T13:01:28.860Z,13.80
2022-08-20T13:09:35.693Z,12.18
2022-08-20T13:13:43.501Z,10.32
2022-08-20T13:17:46.173Z,11.93
2022-08-20T13:25:59.139Z,6.00
2022-08-20T13:30:01.679Z,5.03
2022-08-20T13:34:04.346Z,7.65
2022-08-20T13:38:07.117Z,12.73
2022-08-20T13:46:14.239Z,9.38
2022-08-20T13:50:20.250Z,10.77
2022-08-20T13:54:23.960Z,11.20
2022-08-20T13:58:33.660Z,10.82
2022-08-20T14:02:36.214Z,11.93
2022-08-20T14:06:38.780Z,12.32
2022-08-20T14:10:42.537Z,9.68
2022-08-20T14:14:46.867Z,11.88
2022-08-20T14:18:52.734Z,11.10
2022-08-20T14:22:55.794Z,11.75
2022-08-20T14:31:02.300Z,8.07
2022-08-20T14:35:05.920Z,8.18
2022-08-20T14:39:08.726Z,11.75
2022-08-20T14:47:18.759Z,11.75
2022-08-20T14:51:21.328Z,7.72
2022-08-20T14:55:26.579Z,7.60
2022-08-20T14:59:29.229Z,4.45
2022-08-20T15:03:33.104Z,5.20
2022-08-20T15:07:38.581Z,5.35
2022-08-20T15:11:41.404Z,5.63
2022-08-20T15:19:47.767Z,4.65
2022-08-20T15:23:50.470Z,2.92
2022-08-20T15:27:58.320Z,4.80
2022-08-20T15:32:04.712Z,4.07
2022-08-20T15:36:10.836Z,5.05
2022-08-20T15:40:16.784Z,6.57
2022-08-20T15:44:19.424Z,5.32
2022-08-20T15:48:31.521Z,4.82
2022-08-20T15:52:42.100Z,6.88
2022-08-20T15:56:53.740Z,5.57
2022-08-20T16:01:24.457Z,6.78
2022-08-20T16:05:41.800Z,6.85
2022-08-20T16:10:00.577Z,5.80
2022-08-20T16:14:11.747Z,4.70
2022-08-20T16:18:20.167Z,5.20
2022-08-20T16:22:33.041Z,4.70
2022-08-20T16:31:02.766Z,5.15
2022-08-20T16:35:26.282Z,4.47
2022-08-20T16:39:40.363Z,7.28
2022-08-20T16:43:51.973Z,6.50
2022-08-20T16:48:00.068Z,5.80
2022-08-20T16:52:02.795Z,7.05
2022-08-20T16:56:06.202Z,4.75
2022-08-20T17:00:14.576Z,6.47
2022-08-20T17:04:21.904Z,4.70
2022-08-20T17:08:28.432Z,4.70
2022-08-20T17:12:32.406Z,6.05
2022-08-20T17:16:38.288Z,3.47
2022-08-20T17:20:46.048Z,5.22
2022-08-20T17:24:48.943Z,3.38
2022-08-20T17:28:53.218Z,5.18
2022-08-20T17:33:00.424Z,4.10
2022-08-20T17:37:08.379Z,4.55
2022-08-20T17:41:17.196Z,4.05
2022-08-20T17:45:23.631Z,4.28
2022-08-20T17:49:35.588Z,4.35
2022-08-20T17:53:41.034Z,6.97
2022-08-20T17:57:46.272Z,6.45
2022-08-20T18:01:58.366Z,5.13
2022-08-20T18:06:08.423Z,5.35
2022-08-20T18:10:16.619Z,6.03
2022-08-20T18:14:43.888Z,6.03
2022-08-20T18:18:56.599Z,5.00
2022-08-20T18:27:14.848Z,6.13
2022-08-20T18:31:27.884Z,6.03
2022-08-20T18:35:35.150Z,6.07
2022-08-20T18:39:41.443Z,7.35
2022-08-20T18:43:44.600Z,7.22
2022-08-20T18:47:47.735Z,5.43
2022-08-20T18:51:51.766Z,5.80
2022-08-20T18:56:05.035Z,7.40
2022-08-20T19:00:11.921Z,5.40
2022-08-20T19:04:24.308Z,6.47
2022-08-20T19:08:40.084Z,6.10
2022-08-20T19:13:14.185Z,7.15
2022-08-20T19:17:24.736Z,4.15
2022-08-20T19:21:32.519Z,4.03
2022-08-20T19:25:37.831Z,3.25
2022-08-20T19:29:47.181Z,5.53
2022-08-20T19:33:51.604Z,6.85
2022-08-20T19:37:54.466Z,4.65
2022-08-20T19:41:59.513Z,5.32
2022-08-20T19:46:03.536Z,5.72
2022-08-20T19:50:18.318Z,6.38
2022-08-20T19:54:22.438Z,5.72
2022-08-20T19:58:26.653Z,5.32
2022-08-20T20:02:33.007Z,6.53
2022-08-20T20:06:38.763Z,7.07
2022-08-20T20:10:41.465Z,6.70
2022-08-20T20:14:45.305Z,5.35
2022-08-20T20:19:09.091Z,6.72
2022-08-20T20:23:15.866Z,8.15
2022-08-20T20:27:23.365Z,6.05
2022-08-20T20:31:30.242Z,6.93
2022-08-20T20:35:36.300Z,6.47
2022-08-20T20:39:41.676Z,4.38
2022-08-20T20:43:44.692Z,6.72
2022-08-20T20:51:58.766Z,6.35
2022-08-20T20:56:01.422Z,5.80
2022-08-20T21:00:06.288Z,6.68
2022-08-20T21:04:09.337Z,8.00
2022-08-20T21:08:13.600Z,7.97
2022-08-20T21:12:16.202Z,7.63
2022-08-20T21:16:18.890Z,7.63
2022-08-20T21:20:22.508Z,6.32
2022-08-20T21:24:26.494Z,7.03
2022-08-20T21:28:29.816Z,5.93
2022-08-20T21:32:32.688Z,6.45
2022-08-20T21:36:35.560Z,6.05
2022-08-20T21:40:39.466Z,6.72
2022-08-20T21:44:47.955Z,4.72
2022-08-20T21:48:52.323Z,5.93
2022-08-20T21:52:59.134Z,4.70
2022-08-20T21:57:07.218Z,5.78
2022-08-20T22:01:09.859Z,6.28
2022-08-20T22:05:12.535Z,5.25
2022-08-20T22:09:15.858Z,5.35
2022-08-20T22:13:19.996Z,5.47
2022-08-20T22:17:22.584Z,6.20
2022-08-20T22:21:27.591Z,7.93
2022-08-20T22:25:30.365Z,5.70
2022-08-20T22:29:34.316Z,6.75
2022-08-20T22:33:37.344Z,7.65
2022-08-20T22:37:40.006Z,5.00
2022-08-20T22:41:42.565Z,7.00
2022-08-20T22:45:49.662Z,5.28
2022-08-20T22:49:52.334Z,6.88
2022-08-20T22:53:54.970Z,9.20
2022-08-20T22:57:57.620Z,7.13
2022-08-20T23:02:08.330Z,6.00
2022-08-20T23:06:11.879Z,6.03
2022-08-20T23:10:15.113Z,7.03
2022-08-20T23:18:21.581Z,6.93
2022-08-20T23:22:24.169Z,7.63
2022-08-20T23:26:26.761Z,6.97
2022-08-20T23:30:29.951Z,8.25
2022-08-20T23:42:39.492Z,6.47
2022-08-20T23:46:42.075Z,6.30
2022-08-20T23:50:46.142Z,6.97
2022-08-20T23:54:48.731Z,8.40
2022-08-20T23:58:51.415Z,6.77
